• images/banner/banner1.jpg
  • images/banner/banner2.jpg

Team Member Login

Aviation Weather

[source: ADDS]
METAR
EGVN 260850Z 27010KT 9999 SCT032 11/02 Q1016 NOSIG =
TAF
TAF EGVN 260727Z 2609/2709 25008KT 9999 FEW035 PROB30 TEMPO 2609/2615 24015G25KT -SHRA BECMG 2702/2705 7000 -RA BKN020 PROB40 TEMPO 2704/2709 4000 RA BKN014 =